createdAt,value
2023-01-29T15:11:13.350Z,49.30
2023-01-29T15:13:44.741Z,24.70
2023-01-29T15:17:01.819Z,21.50
2023-01-29T15:19:48.363Z,18.80
2023-01-29T15:22:18.405Z,17.80
2023-01-29T15:24:48.862Z,22.40
2023-01-29T15:27:24.471Z,24.20
2023-01-29T15:30:02.183Z,22.10
2023-01-29T15:32:41.104Z,23.10
2023-01-29T15:35:21.685Z,21.50
2023-01-29T15:38:29.893Z,19.50
2023-01-29T15:41:30.511Z,20.40
2023-01-29T15:43:59.197Z,20.20
2023-01-29T15:46:34.267Z,25.70
2023-01-29T15:49:07.230Z,25.20
2023-01-29T20:04:48.293Z,13.20
2023-01-29T20:07:23.812Z,18.10
2023-01-29T20:09:56.721Z,18.30
2023-01-29T20:12:28.059Z,29.90
2023-01-29T20:14:57.287Z,21.00
2023-01-29T20:17:27.748Z,11.30
2023-01-29T20:19:57.106Z,16.00
2023-01-29T20:22:27.530Z,14.50
2023-01-29T20:24:58.418Z,13.00
2023-01-29T20:27:31.953Z,11.50
2023-01-29T20:30:02.444Z,10.10
2023-01-29T20:32:33.789Z,11.60
2023-01-29T20:35:04.909Z,11.30
2023-01-29T20:40:06.891Z,9.60
2023-01-29T20:42:36.321Z,8.40
2023-01-29T20:45:06.647Z,9.70
2023-01-29T20:50:09.244Z,9.10
2023-01-29T20:52:44.097Z,9.40
2023-01-29T20:55:17.535Z,8.20
2023-01-29T20:58:05.501Z,7.10
2023-01-29T21:00:39.593Z,12.30
2023-01-29T21:03:09.075Z,9.90
2023-01-29T21:05:39.790Z,8.30
2023-01-29T21:08:12.755Z,7.80
2023-01-29T21:10:45.862Z,7.30
2023-01-29T21:13:14.782Z,9.30
2023-01-29T21:15:44.837Z,14.50
2023-01-29T21:18:14.711Z,38.50
2023-01-29T21:20:46.851Z,13.90
2023-01-29T21:23:16.445Z,8.60
2023-01-29T21:25:46.875Z,8.70
2023-01-29T21:28:17.364Z,9.30
2023-01-29T21:30:50.710Z,8.40
2023-01-29T21:33:20.254Z,10.50
2023-01-29T21:35:58.394Z,11.50
2023-01-29T21:38:28.460Z,9.20
2023-01-29T21:41:07.451Z,14.60
2023-01-29T21:43:37.972Z,13.80
2023-01-29T21:46:14.130Z,9.60
2023-01-29T21:48:43.989Z,8.00
2023-01-29T21:51:13.348Z,9.60
2023-01-29T21:53:42.446Z,9.70
2023-01-29T21:56:14.224Z,9.60
2023-01-29T21:58:48.091Z,9.00
2023-01-29T22:01:39.863Z,10.30
2023-01-29T22:04:16.644Z,10.00
2023-01-29T22:06:45.700Z,11.00
2023-01-29T22:09:18.494Z,11.00
2023-01-29T22:11:47.883Z,11.40
2023-01-29T22:14:18.973Z,16.60
2023-01-29T22:16:49.762Z,10.20
2023-01-29T22:19:19.747Z,12.50
2023-01-29T22:21:49.016Z,11.30
2023-01-29T22:24:19.052Z,10.50
2023-01-29T22:26:49.513Z,11.10
2023-01-29T22:29:21.039Z,11.70
2023-01-29T22:31:50.775Z,9.70
2023-01-29T22:34:20.409Z,11.20
2023-01-29T22:36:51.395Z,10.10
2023-01-29T22:39:24.927Z,11.20
2023-01-29T22:41:54.844Z,8.60
2023-01-29T22:44:27.927Z,9.00
2023-01-29T22:46:58.370Z,10.60
2023-01-29T22:49:30.955Z,10.30
2023-01-29T22:52:12.443Z,8.60
2023-01-29T22:54:43.702Z,9.90
2023-01-29T22:57:14.829Z,9.80
2023-01-29T22:59:44.190Z,8.80
2023-01-29T23:02:13.315Z,9.20
2023-01-29T23:04:45.919Z,8.70
2023-01-29T23:07:18.561Z,7.90
2023-01-29T23:09:49.094Z,8.00
2023-01-29T23:12:22.082Z,8.80
2023-01-29T23:14:55.087Z,9.80
2023-01-29T23:17:31.688Z,10.70
2023-01-29T23:20:02.379Z,11.30
2023-01-29T23:22:37.110Z,8.70
2023-01-29T23:25:08.447Z,9.00
2023-01-29T23:27:39.044Z,8.70
2023-01-29T23:30:09.261Z,6.20
2023-01-29T23:32:39.128Z,8.30
2023-01-29T23:35:13.939Z,6.90
2023-01-29T23:37:44.881Z,8.90
2023-01-29T23:40:15.121Z,8.60
2023-01-29T23:42:44.708Z,6.10
2023-01-29T23:45:14.813Z,8.90
2023-01-29T23:47:45.592Z,8.00
